Crest, California
Current Conditions -  °F | °C
As of 10:35 PM on Wednesday 26 Nov 2014 (Local Time) from KSEE Reporting Station
Clear Clear  
Wind Chill: 55°   Ceiling: Unl
Heat Index: 55°   Visibility: 10mi
Dew Point: 32°   Wind: 0mph
Humidity: 41%   Direction: NA
Pressure: 30.14"   Gusts: NA
Location:  32.8383°N, 116.868°W
Report Text: KSEE 270635Z AUTO 00000KT 10SM CLR 13/00 A3014 RMK AO2
Loading
Personal Weather Stations






























Interactive Weather Map New forecast layout! Learn more

10-Day Weather Forecast

Advertisements
Track Severe Weather on mobile